• Join FlightAware (Why Join?)
  • Login
  • US Flag 
06:32AM EDT


 

Airport Tracker/Info


-or-


 

Live Flight TrackerFlight Track Log ✈ SWA1728 ✈ 24-Apr-2013 ✈ KOMA - KDEN

Flight Track Log - Related Links

Times and Time Zones

All times are in EDT time to prevent confusion due to time zone crossing. See the SWA1728 flight status page for this flight to view local times or setup timezone preferences in your user account.

Time Position Orientation Groundspeed Altitude Reporting Facility
EDT Latitude Longitude Course Direction KTS MPH feet Rate Location/Type
03:52PM 41.3175 -95.9142 315° West 183 211 1,700  Level Minneapolis Center
03:52PM 41.3519 -95.9603 315° West 209 241 3,900 2,460 Climbing Minneapolis Center
03:53PM 41.3575 -95.9719 302° West 229 264 4,700 1,620 Climbing Minneapolis Center
03:54PM 41.3744 -96.0394 289° West 220 253 6,100 2,940 Climbing Minneapolis Center
03:55PM 41.3569 -96.1497 258° West 234 269 10,800 3,000 Climbing Minneapolis Center
03:56PM 41.3444 -96.2617 262° West 296 341 12,300 2,040 Climbing Minneapolis Center
03:57PM 41.3314 -96.3839 262° West 326 375 15,100 2,460 Climbing Minneapolis Center
03:58PM 41.3178 -96.5075 262° West 336 387 17,500 1,980 Climbing Minneapolis Center
03:59PM 41.3036 -96.6361 262° West 346 398 19,600 2,040 Climbing Minneapolis Center
04:00PM 41.2869 -96.7911 262° West 353 406 22,200 2,280 Climbing Minneapolis Center
04:01PM 41.2689 -96.9478 261° West 357 411 24,400 1,920 Climbing Minneapolis Center
04:02PM 41.2536 -97.0811 261° West 362 417 26,200 1,800 Climbing Minneapolis Center
04:03PM 41.2386 -97.2106 261° West 359 413 28,200 1,620 Climbing Minneapolis Center
04:04PM 41.2242 -97.3394 262° West 354 407 29,600 1,620 Climbing Minneapolis Center
04:05PM 41.2075 -97.4758 261° West 351 404 31,600 1,620 Climbing Minneapolis Center
04:06PM 41.1928 -97.5992 261° West 342 394 33,000 1,200 Climbing Minneapolis Center
04:07PM 41.1778 -97.7231 261° West 339 390 34,200 960 Climbing Minneapolis Center
04:08PM 41.1636 -97.8450 261° West 336 387 35,000 660 Climbing Minneapolis Center
04:09PM 41.1486 -97.9694 261° West 338 389 35,600 480 Climbing Minneapolis Center
04:10PM 41.1294 -98.1211 261° West 345 397 36,000 180 Climbing Minneapolis Center
04:11PM 41.1128 -98.2550 261° West 360 414 36,000  Level Minneapolis Center
04:13PM 41.0972 -98.3881 261° West 364 419 36,000  Level Minneapolis Center
04:14PM 41.0817 -98.5064 260° West 360 414 36,000  Level Minneapolis Center
04:15PM 41.0628 -98.6633 261° West 359 413 36,000  Level Minneapolis Center
04:16PM 41.0458 -98.7925 260° West 358 412 36,000  Level Minneapolis Center
04:17PM 41.0289 -98.9217 260° West 356 410 36,000  Level Minneapolis Center
04:18PM 41.0114 -99.0514 260° West 358 412 36,000  Level Minneapolis Center
04:19PM 40.9950 -99.1781 260° West 357 411 36,000  Level Minneapolis Center
04:20PM 40.9772 -99.3089 260° West 359 413 36,000  Level Minneapolis Center
04:21PM 40.9528 -99.4903 260° West 358 412 36,000  Level Minneapolis Center
04:22PM 40.9322 -99.6189 258° West 357 411 36,000  Level Denver Center
04:23PM 40.9119 -99.7486 258° West 358 412 36,000  Level Denver Center
04:24PM 40.8922 -99.8764 259° West 357 411 36,000  Level Denver Center
04:25PM 40.8697 -100.0189 258° West 356 410 36,000  Level Denver Center
04:26PM 40.8511 -100.1417 259° West 356 410 36,000  Level Denver Center
04:27PM 40.8336 -100.2436 257° West 357 411 36,000  Level Denver Center
04:28PM 40.8083 -100.4053 258° West 354 407 36,000  Level Denver Center
04:29PM 40.7894 -100.5261 258° West 350 403 36,000  Level Denver Center
04:30PM 40.7669 -100.6683 258° West 351 404 36,000  Level Denver Center
04:31PM 40.7458 -100.7933 257° West 354 407 36,000  Level Denver Center
04:32PM 40.7250 -100.9181 258° West 358 412 36,000  Level Denver Center
04:33PM 40.7075 -101.0222 258° West 362 417 36,000  Level Denver Center
04:34PM 40.6803 -101.1872 258° West 362 417 36,000  Level Denver Center
04:35PM 40.6558 -101.3303 257° West 358 412 36,000  Level Denver Center
04:37PM 40.6344 -101.4536 257° West 359 413 36,000  Level Denver Center
04:38PM 40.6067 -101.6164 257° West 357 411 36,000  Level Denver Center
04:39PM 40.5858 -101.7381 257° West 356 410 36,000  Level Denver Center
04:40PM 40.5608 -101.8800 257° West 357 411 36,000  Level Denver Center
04:41PM 40.5408 -102.0014 258° West 356 410 36,000  Level Denver Center
04:42PM 40.5161 -102.1433 257° West 357 411 36,000  Level Denver Center
04:43PM 40.4942 -102.2636 257° West 353 406 36,000  Level Denver Center
04:44PM 40.4733 -102.3856 257° West 356 410 36,000  Level Denver Center
04:45PM 40.4461 -102.5289 256° West 362 417 36,000  Level Denver Center
04:46PM 40.4239 -102.6508 257° West 360 414 36,000 -240 Level Denver Center
04:47PM 40.3997 -102.7908 257° West 359 413 35,600 -1,560 Descending Denver Center
04:48PM 40.3753 -102.9167 256° West 353 406 32,800 -2,580 Descending Denver Center
04:49PM 40.3506 -103.0508 256° West 373 429 30,300 -2,520 Descending Denver Center
04:50PM 40.3253 -103.1917 257° West 393 452 27,700 -2,400 Descending Denver Center
04:51PM 40.2989 -103.3278 256° West 386 444 25,400 -2,400 Descending Denver Center
04:52PM 40.2717 -103.4811 257° West 369 425 22,800 -2,340 Descending Denver Center
04:53PM 40.2472 -103.6064 256° West 356 410 20,600 -2,040 Descending Denver Center
04:54PM 40.2247 -103.7242 256° West 332 382 18,700 -1,860 Descending Denver Center
04:55PM 40.2042 -103.8417 257° West 318 366 16,800 -1,920 Descending Denver Center
04:56PM 40.1622 -103.9381 240° Southwest 304 350 14,800 -1,860 Descending Denver Center
04:57PM 40.1142 -104.0406 239° Southwest 306 352 13,000 -1,080 Descending Denver Center
04:58PM 40.0508 -104.0850 208° Southwest 280 322 12,700 -780 Descending Denver Center
04:59PM 39.9814 -104.1017 190° South 259 298 11,500 -1,260 Descending Denver Center
05:00PM 39.9317 -104.1708 227° Southwest 248 285 10,100 -1,260 Descending Denver Center
05:01PM 39.9031 -104.2456 243° Southwest 234 269 9,000 -540 Descending Denver Center
05:02PM 39.8833 -104.3256 252° West 232 267 9,000 -540 Level Denver Center
05:03PM 39.8833 -104.4000 270° West 234 269 8,000 -900 Descending Denver TRACON
05:04PM 39.8833 -104.5000 270° West 228 262 7,300 -900 Descending Denver TRACON
05:05PM 39.8833 -104.5667 270° West 175 201 6,200 -1,140 Descending Denver TRACON
05:09PM 39.8617 -104.6732 180° South  Level Estimated
05:16PM 39.8617 -104.6732 339° North  Level Estimated
05:17PM 39.8617 -104.6732 339° North  Level Estimated
05:18PM 39.8617 -104.6732 339° North  Level Estimated